sensor_id;sensor_type;location;lat;lon;timestamp;temperature;humidity
6792;DHT22;3433;48.730;9.108;2022-09-17T00:01:13;12.10;99.90
6792;DHT22;3433;48.730;9.108;2022-09-17T00:03:41;12.20;99.90
6792;DHT22;3433;48.730;9.108;2022-09-17T00:06:10;12.20;99.90
6792;DHT22;3433;48.730;9.108;2022-09-17T00:08:38;12.20;99.90
6792;DHT22;3433;48.730;9.108;2022-09-17T00:11:10;12.20;99.90
6792;DHT22;3433;48.730;9.108;2022-09-17T00:13:38;12.20;99.90
6792;DHT22;3433;48.730;9.108;2022-09-17T00:16:05;12.20;99.90
6792;DHT22;3433;48.730;9.108;2022-09-17T00:18:32;12.20;99.90
6792;DHT22;3433;48.730;9.108;2022-09-17T00:21:01;12.20;99.90
6792;DHT22;3433;48.730;9.108;2022-09-17T00:23:29;12.10;99.90
6792;DHT22;3433;48.730;9.108;2022-09-17T00:25:56;12.10;99.90
6792;DHT22;3433;48.730;9.108;2022-09-17T00:28:25;12.10;99.90
6792;DHT22;3433;48.730;9.108;2022-09-17T00:30:52;12.10;99.90
6792;DHT22;3433;48.730;9.108;2022-09-17T00:33:19;12.10;99.90
6792;DHT22;3433;48.730;9.108;2022-09-17T00:35:57;12.10;99.90
6792;DHT22;3433;48.730;9.108;2022-09-17T00:38:24;12.00;99.90
6792;DHT22;3433;48.730;9.108;2022-09-17T00:40:51;12.00;99.90
6792;DHT22;3433;48.730;9.108;2022-09-17T00:43:35;12.00;99.90
6792;DHT22;3433;48.730;9.108;2022-09-17T00:46:05;12.10;99.90
6792;DHT22;3433;48.730;9.108;2022-09-17T00:48:35;12.00;99.90
6792;DHT22;3433;48.730;9.108;2022-09-17T00:51:03;12.00;99.90
6792;DHT22;3433;48.730;9.108;2022-09-17T00:53:32;12.00;99.90
6792;DHT22;3433;48.730;9.108;2022-09-17T00:56:03;12.00;99.90
6792;DHT22;3433;48.730;9.108;2022-09-17T00:58:34;12.00;99.90
6792;DHT22;3433;48.730;9.108;2022-09-17T01:01:02;12.00;99.90
6792;DHT22;3433;48.730;9.108;2022-09-17T01:03:29;12.00;99.90
6792;DHT22;3433;48.730;9.108;2022-09-17T01:06:04;12.00;99.90
6792;DHT22;3433;48.730;9.108;2022-09-17T01:08:46;12.00;99.90
6792;DHT22;3433;48.730;9.108;2022-09-17T01:11:38;12.00;99.90
6792;DHT22;3433;48.730;9.108;2022-09-17T01:14:20;12.00;99.90
6792;DHT22;3433;48.730;9.108;2022-09-17T01:16:56;11.90;99.90
6792;DHT22;3433;48.730;9.108;2022-09-17T01:22:39;12.00;99.90
6792;DHT22;3433;48.730;9.108;2022-09-17T01:25:20;11.90;99.90
6792;DHT22;3433;48.730;9.108;2022-09-17T01:28:18;11.90;99.90
6792;DHT22;3433;48.730;9.108;2022-09-17T01:31:09;11.90;99.90
6792;DHT22;3433;48.730;9.108;2022-09-17T01:33:41;11.90;99.90
6792;DHT22;3433;48.730;9.108;2022-09-17T01:36:21;11.90;99.90
6792;DHT22;3433;48.730;9.108;2022-09-17T01:38:53;11.90;99.90
6792;DHT22;3433;48.730;9.108;2022-09-17T01:41:30;11.80;99.90
6792;DHT22;3433;48.730;9.108;2022-09-17T01:44:05;11.80;99.90
6792;DHT22;3433;48.730;9.108;2022-09-17T01:46:37;11.90;99.90
6792;DHT22;3433;48.730;9.108;2022-09-17T01:49:06;11.80;99.90
6792;DHT22;3433;48.730;9.108;2022-09-17T01:51:37;11.80;99.90
6792;DHT22;3433;48.730;9.108;2022-09-17T01:54:09;11.80;99.90
6792;DHT22;3433;48.730;9.108;2022-09-17T01:56:41;11.80;99.90
6792;DHT22;3433;48.730;9.108;2022-09-17T01:59:13;11.80;99.90
6792;DHT22;3433;48.730;9.108;2022-09-17T02:01:46;11.90;99.90
6792;DHT22;3433;48.730;9.108;2022-09-17T02:04:18;11.90;99.90
6792;DHT22;3433;48.730;9.108;2022-09-17T02:06:54;11.80;99.90
6792;DHT22;3433;48.730;9.108;2022-09-17T02:09:26;11.70;99.90
6792;DHT22;3433;48.730;9.108;2022-09-17T02:11:58;11.70;99.90
6792;DHT22;3433;48.730;9.108;2022-09-17T02:14:29;11.80;99.90
6792;DHT22;3433;48.730;9.108;2022-09-17T02:17:03;11.70;99.90
6792;DHT22;3433;48.730;9.108;2022-09-17T02:19:35;11.70;99.90
6792;DHT22;3433;48.730;9.108;2022-09-17T02:22:11;11.80;99.90
6792;DHT22;3433;48.730;9.108;2022-09-17T02:24:44;11.70;99.90
6792;DHT22;3433;48.730;9.108;2022-09-17T02:27:18;11.70;99.90
6792;DHT22;3433;48.730;9.108;2022-09-17T02:29:46;11.70;99.90
6792;DHT22;3433;48.730;9.108;2022-09-17T02:32:15;11.80;99.90
6792;DHT22;3433;48.730;9.108;2022-09-17T02:34:42;11.70;99.90
6792;DHT22;3433;48.730;9.108;2022-09-17T02:37:10;11.70;99.90
6792;DHT22;3433;48.730;9.108;2022-09-17T02:39:37;11.80;99.90
6792;DHT22;3433;48.730;9.108;2022-09-17T02:42:11;11.70;99.90
6792;DHT22;3433;48.730;9.108;2022-09-17T02:44:51;11.70;99.90
6792;DHT22;3433;48.730;9.108;2022-09-17T02:50:32;11.70;99.90
6792;DHT22;3433;48.730;9.108;2022-09-17T02:53:23;11.80;99.90
6792;DHT22;3433;48.730;9.108;2022-09-17T02:56:01;11.80;99.90
6792;DHT22;3433;48.730;9.108;2022-09-17T02:58:37;11.80;99.90
6792;DHT22;3433;48.730;9.108;2022-09-17T03:01:08;11.90;99.90
6792;DHT22;3433;48.730;9.108;2022-09-17T03:03:42;11.80;99.90
6792;DHT22;3433;48.730;9.108;2022-09-17T03:06:13;11.80;99.90
6792;DHT22;3433;48.730;9.108;2022-09-17T03:08:41;11.70;99.90
6792;DHT22;3433;48.730;9.108;2022-09-17T03:11:09;11.70;99.90
6792;DHT22;3433;48.730;9.108;2022-09-17T03:13:37;11.70;99.90
6792;DHT22;3433;48.730;9.108;2022-09-17T03:16:05;11.70;99.90
6792;DHT22;3433;48.730;9.108;2022-09-17T03:18:33;11.70;99.90
6792;DHT22;3433;48.730;9.108;2022-09-17T03:21:03;11.70;99.90
6792;DHT22;3433;48.730;9.108;2022-09-17T03:23:31;11.60;99.90
6792;DHT22;3433;48.730;9.108;2022-09-17T03:26:01;11.60;99.90
6792;DHT22;3433;48.730;9.108;2022-09-17T03:28:28;11.60;99.90
6792;DHT22;3433;48.730;9.108;2022-09-17T03:30:54;11.60;99.90
6792;DHT22;3433;48.730;9.108;2022-09-17T03:33:21;11.50;99.90
6792;DHT22;3433;48.730;9.108;2022-09-17T03:35:48;11.60;99.90
6792;DHT22;3433;48.730;9.108;2022-09-17T03:38:15;11.50;99.90
6792;DHT22;3433;48.730;9.108;2022-09-17T03:40:43;11.40;99.90
6792;DHT22;3433;48.730;9.108;2022-09-17T03:43:11;11.40;99.90
6792;DHT22;3433;48.730;9.108;2022-09-17T03:45:38;11.40;99.90
6792;DHT22;3433;48.730;9.108;2022-09-17T03:48:04;11.50;99.90
6792;DHT22;3433;48.730;9.108;2022-09-17T03:50:31;11.40;99.90
6792;DHT22;3433;48.730;9.108;2022-09-17T03:53:01;11.40;99.90
6792;DHT22;3433;48.730;9.108;2022-09-17T03:55:28;11.40;99.90
6792;DHT22;3433;48.730;9.108;2022-09-17T03:57:56;11.40;99.90
6792;DHT22;3433;48.730;9.108;2022-09-17T04:00:23;11.40;99.90
6792;DHT22;3433;48.730;9.108;2022-09-17T04:02:50;11.40;99.90
6792;DHT22;3433;48.730;9.108;2022-09-17T04:05:17;11.30;99.90
6792;DHT22;3433;48.730;9.108;2022-09-17T04:07:44;11.30;99.90
6792;DHT22;3433;48.730;9.108;2022-09-17T04:10:11;11.30;99.90
6792;DHT22;3433;48.730;9.108;2022-09-17T04:12:38;11.30;99.90
6792;DHT22;3433;48.730;9.108;2022-09-17T04:15:07;11.30;99.90
6792;DHT22;3433;48.730;9.108;2022-09-17T04:17:34;11.30;99.90
6792;DHT22;3433;48.730;9.108;2022-09-17T04:20:02;11.30;99.90
6792;DHT22;3433;48.730;9.108;2022-09-17T04:22:30;11.30;99.90
6792;DHT22;3433;48.730;9.108;2022-09-17T04:24:56;11.30;99.90
6792;DHT22;3433;48.730;9.108;2022-09-17T04:27:24;11.30;99.90
6792;DHT22;3433;48.730;9.108;2022-09-17T04:29:51;11.30;99.90
6792;DHT22;3433;48.730;9.108;2022-09-17T04:32:19;11.30;99.90
6792;DHT22;3433;48.730;9.108;2022-09-17T04:34:46;11.30;99.90
6792;DHT22;3433;48.730;9.108;2022-09-17T04:37:13;11.30;99.90
6792;DHT22;3433;48.730;9.108;2022-09-17T04:39:40;11.30;99.90
6792;DHT22;3433;48.730;9.108;2022-09-17T04:42:07;11.30;99.90
6792;DHT22;3433;48.730;9.108;2022-09-17T04:44:34;11.30;99.90
6792;DHT22;3433;48.730;9.108;2022-09-17T04:47:01;11.20;99.90
6792;DHT22;3433;48.730;9.108;2022-09-17T04:49:29;11.30;99.90
6792;DHT22;3433;48.730;9.108;2022-09-17T04:51:57;11.20;99.90
6792;DHT22;3433;48.730;9.108;2022-09-17T04:54:24;11.20;99.90
6792;DHT22;3433;48.730;9.108;2022-09-17T04:56:51;11.20;99.90
6792;DHT22;3433;48.730;9.108;2022-09-17T04:59:18;11.10;99.90
6792;DHT22;3433;48.730;9.108;2022-09-17T05:01:45;11.10;99.90
6792;DHT22;3433;48.730;9.108;2022-09-17T05:04:12;11.10;99.90
6792;DHT22;3433;48.730;9.108;2022-09-17T05:06:40;11.10;99.90
6792;DHT22;3433;48.730;9.108;2022-09-17T05:09:07;11.10;99.90
6792;DHT22;3433;48.730;9.108;2022-09-17T05:11:34;11.10;99.90
6792;DHT22;3433;48.730;9.108;2022-09-17T05:14:01;11.10;99.90
6792;DHT22;3433;48.730;9.108;2022-09-17T05:16:28;11.10;99.90
6792;DHT22;3433;48.730;9.108;2022-09-17T05:18:55;11.10;99.90
6792;DHT22;3433;48.730;9.108;2022-09-17T05:21:22;11.10;99.90
6792;DHT22;3433;48.730;9.108;2022-09-17T05:23:50;11.10;99.90
6792;DHT22;3433;48.730;9.108;2022-09-17T05:26:17;11.20;99.90
6792;DHT22;3433;48.730;9.108;2022-09-17T05:28:44;11.20;99.90
6792;DHT22;3433;48.730;9.108;2022-09-17T05:31:11;11.20;99.90
6792;DHT22;3433;48.730;9.108;2022-09-17T05:33:38;11.20;99.90
6792;DHT22;3433;48.730;9.108;2022-09-17T05:36:05;11.20;99.90
6792;DHT22;3433;48.730;9.108;2022-09-17T05:38:32;11.30;99.90
6792;DHT22;3433;48.730;9.108;2022-09-17T05:41:04;11.20;99.90
6792;DHT22;3433;48.730;9.108;2022-09-17T05:43:32;11.20;99.90
6792;DHT22;3433;48.730;9.108;2022-09-17T05:46:02;11.10;99.90
6792;DHT22;3433;48.730;9.108;2022-09-17T05:48:30;11.20;99.90
6792;DHT22;3433;48.730;9.108;2022-09-17T05:50:57;11.20;99.90
6792;DHT22;3433;48.730;9.108;2022-09-17T05:53:24;11.20;99.90
6792;DHT22;3433;48.730;9.108;2022-09-17T05:55:55;11.20;99.90
6792;DHT22;3433;48.730;9.108;2022-09-17T05:58:24;11.20;99.90
6792;DHT22;3433;48.730;9.108;2022-09-17T06:00:51;11.20;99.90
6792;DHT22;3433;48.730;9.108;2022-09-17T06:03:20;11.20;99.90
6792;DHT22;3433;48.730;9.108;2022-09-17T06:05:52;11.20;99.90
6792;DHT22;3433;48.730;9.108;2022-09-17T06:08:20;11.20;99.90
6792;DHT22;3433;48.730;9.108;2022-09-17T06:10:47;11.30;99.90
6792;DHT22;3433;48.730;9.108;2022-09-17T06:13:14;11.30;99.90
6792;DHT22;3433;48.730;9.108;2022-09-17T06:15:47;11.30;99.90
6792;DHT22;3433;48.730;9.108;2022-09-17T06:18:14;11.40;99.90
6792;DHT22;3433;48.730;9.108;2022-09-17T06:20:41;11.40;99.90
6792;DHT22;3433;48.730;9.108;2022-09-17T06:23:08;11.50;99.90
6792;DHT22;3433;48.730;9.108;2022-09-17T06:25:35;11.60;99.90
6792;DHT22;3433;48.730;9.108;2022-09-17T06:28:02;11.70;99.90
6792;DHT22;3433;48.730;9.108;2022-09-17T06:30:29;11.80;99.90
6792;DHT22;3433;48.730;9.108;2022-09-17T06:32:59;11.70;99.90
6792;DHT22;3433;48.730;9.108;2022-09-17T06:35:27;11.60;99.90
6792;DHT22;3433;48.730;9.108;2022-09-17T06:37:53;11.70;99.90
6792;DHT22;3433;48.730;9.108;2022-09-17T06:40:20;11.80;99.90
6792;DHT22;3433;48.730;9.108;2022-09-17T06:42:48;11.80;99.90
6792;DHT22;3433;48.730;9.108;2022-09-17T06:45:15;11.80;99.90
6792;DHT22;3433;48.730;9.108;2022-09-17T06:47:42;11.80;99.90
6792;DHT22;3433;48.730;9.108;2022-09-17T06:50:10;11.90;99.90
6792;DHT22;3433;48.730;9.108;2022-09-17T06:52:37;11.90;99.90
6792;DHT22;3433;48.730;9.108;2022-09-17T06:55:04;12.10;99.90
6792;DHT22;3433;48.730;9.108;2022-09-17T06:57:31;12.10;99.90
6792;DHT22;3433;48.730;9.108;2022-09-17T06:59:59;12.20;99.90
6792;DHT22;3433;48.730;9.108;2022-09-17T07:02:26;12.20;99.90
6792;DHT22;3433;48.730;9.108;2022-09-17T07:04:53;12.20;99.90
6792;DHT22;3433;48.730;9.108;2022-09-17T07:07:21;12.20;99.90
6792;DHT22;3433;48.730;9.108;2022-09-17T07:09:48;12.20;99.90
6792;DHT22;3433;48.730;9.108;2022-09-17T07:12:15;12.20;99.90
6792;DHT22;3433;48.730;9.108;2022-09-17T07:14:42;12.10;99.90
6792;DHT22;3433;48.730;9.108;2022-09-17T07:17:09;12.20;99.90
6792;DHT22;3433;48.730;9.108;2022-09-17T07:19:35;12.20;99.90
6792;DHT22;3433;48.730;9.108;2022-09-17T07:22:03;12.20;99.90
6792;DHT22;3433;48.730;9.108;2022-09-17T07:24:31;12.20;99.90
6792;DHT22;3433;48.730;9.108;2022-09-17T07:26:58;12.20;99.90
6792;DHT22;3433;48.730;9.108;2022-09-17T07:29:26;12.10;99.90
6792;DHT22;3433;48.730;9.108;2022-09-17T07:31:53;12.10;99.90
6792;DHT22;3433;48.730;9.108;2022-09-17T07:34:20;12.10;99.90
6792;DHT22;3433;48.730;9.108;2022-09-17T07:36:47;12.20;99.90
6792;DHT22;3433;48.730;9.108;2022-09-17T07:39:14;12.20;99.90
6792;DHT22;3433;48.730;9.108;2022-09-17T07:41:42;12.20;99.90
6792;DHT22;3433;48.730;9.108;2022-09-17T07:44:09;12.30;99.90
6792;DHT22;3433;48.730;9.108;2022-09-17T07:46:36;12.20;99.90
6792;DHT22;3433;48.730;9.108;2022-09-17T07:49:03;12.10;99.90
6792;DHT22;3433;48.730;9.108;2022-09-17T07:51:30;12.10;99.90
6792;DHT22;3433;48.730;9.108;2022-09-17T07:53:58;12.10;99.90
6792;DHT22;3433;48.730;9.108;2022-09-17T07:56:27;12.20;99.90
6792;DHT22;3433;48.730;9.108;2022-09-17T07:58:55;12.20;99.90
6792;DHT22;3433;48.730;9.108;2022-09-17T08:01:22;12.10;99.90
6792;DHT22;3433;48.730;9.108;2022-09-17T08:03:52;12.00;99.90
6792;DHT22;3433;48.730;9.108;2022-09-17T08:06:21;12.00;99.90
6792;DHT22;3433;48.730;9.108;2022-09-17T08:08:48;11.90;99.90
6792;DHT22;3433;48.730;9.108;2022-09-17T08:11:17;11.90;99.90
6792;DHT22;3433;48.730;9.108;2022-09-17T08:13:47;11.90;99.90
6792;DHT22;3433;48.730;9.108;2022-09-17T08:16:16;12.00;99.90
6792;DHT22;3433;48.730;9.108;2022-09-17T08:18:44;12.10;99.90
6792;DHT22;3433;48.730;9.108;2022-09-17T08:21:12;12.10;99.90
6792;DHT22;3433;48.730;9.108;2022-09-17T08:23:40;12.10;99.90
6792;DHT22;3433;48.730;9.108;2022-09-17T08:26:12;12.00;99.90
6792;DHT22;3433;48.730;9.108;2022-09-17T08:28:39;11.90;99.90
6792;DHT22;3433;48.730;9.108;2022-09-17T08:31:09;11.90;99.90
6792;DHT22;3433;48.730;9.108;2022-09-17T08:33:39;11.90;99.90
6792;DHT22;3433;48.730;9.108;2022-09-17T08:36:08;12.00;99.90
6792;DHT22;3433;48.730;9.108;2022-09-17T08:38:36;11.90;99.90
6792;DHT22;3433;48.730;9.108;2022-09-17T08:41:14;12.20;99.90
6792;DHT22;3433;48.730;9.108;2022-09-17T08:43:47;12.20;99.90
6792;DHT22;3433;48.730;9.108;2022-09-17T08:46:16;12.30;99.90
6792;DHT22;3433;48.730;9.108;2022-09-17T08:48:47;12.40;99.90
6792;DHT22;3433;48.730;9.108;2022-09-17T08:51:29;12.30;99.90
6792;DHT22;3433;48.730;9.108;2022-09-17T08:54:04;12.40;99.90
6792;DHT22;3433;48.730;9.108;2022-09-17T08:56:33;12.40;99.90
6792;DHT22;3433;48.730;9.108;2022-09-17T08:59:10;12.60;99.90
6792;DHT22;3433;48.730;9.108;2022-09-17T09:01:45;12.70;99.90
6792;DHT22;3433;48.730;9.108;2022-09-17T09:04:53;12.90;99.90
6792;DHT22;3433;48.730;9.108;2022-09-17T09:07:24;13.30;99.90
6792;DHT22;3433;48.730;9.108;2022-09-17T09:09:59;13.50;99.90
6792;DHT22;3433;48.730;9.108;2022-09-17T09:12:32;13.80;99.90
6792;DHT22;3433;48.730;9.108;2022-09-17T09:15:05;13.80;99.90
6792;DHT22;3433;48.730;9.108;2022-09-17T09:17:40;13.80;99.90
6792;DHT22;3433;48.730;9.108;2022-09-17T09:20:27;13.70;99.90
6792;DHT22;3433;48.730;9.108;2022-09-17T09:23:01;13.70;99.90
6792;DHT22;3433;48.730;9.108;2022-09-17T09:25:35;13.80;99.90
6792;DHT22;3433;48.730;9.108;2022-09-17T09:28:29;14.00;99.90
6792;DHT22;3433;48.730;9.108;2022-09-17T09:31:03;14.20;99.90
6792;DHT22;3433;48.730;9.108;2022-09-17T09:33:37;14.40;99.90
6792;DHT22;3433;48.730;9.108;2022-09-17T09:36:09;14.50;99.90
6792;DHT22;3433;48.730;9.108;2022-09-17T09:38:41;14.50;99.90
6792;DHT22;3433;48.730;9.108;2022-09-17T09:41:11;14.50;99.90
6792;DHT22;3433;48.730;9.108;2022-09-17T09:43:42;14.70;99.90
6792;DHT22;3433;48.730;9.108;2022-09-17T09:46:30;15.10;99.90
6792;DHT22;3433;48.730;9.108;2022-09-17T09:49:10;15.10;99.90
6792;DHT22;3433;48.730;9.108;2022-09-17T09:51:50;15.10;99.90
6792;DHT22;3433;48.730;9.108;2022-09-17T09:54:38;15.00;99.90
6792;DHT22;3433;48.730;9.108;2022-09-17T09:57:11;15.00;99.90
6792;DHT22;3433;48.730;9.108;2022-09-17T09:59:39;14.80;99.90
6792;DHT22;3433;48.730;9.108;2022-09-17T10:02:07;14.80;99.90
6792;DHT22;3433;48.730;9.108;2022-09-17T10:04:34;14.80;99.90
6792;DHT22;3433;48.730;9.108;2022-09-17T10:07:06;15.00;99.90
6792;DHT22;3433;48.730;9.108;2022-09-17T10:09:35;15.00;99.90
6792;DHT22;3433;48.730;9.108;2022-09-17T10:12:05;15.20;99.90
6792;DHT22;3433;48.730;9.108;2022-09-17T10:14:40;15.20;99.90
6792;DHT22;3433;48.730;9.108;2022-09-17T10:17:17;15.30;99.90
6792;DHT22;3433;48.730;9.108;2022-09-17T10:19:46;15.30;99.90
6792;DHT22;3433;48.730;9.108;2022-09-17T10:22:37;15.20;99.90
6792;DHT22;3433;48.730;9.108;2022-09-17T10:25:23;15.30;99.90
6792;DHT22;3433;48.730;9.108;2022-09-17T10:27:51;15.30;99.90
6792;DHT22;3433;48.730;9.108;2022-09-17T10:30:18;15.60;99.90
6792;DHT22;3433;48.730;9.108;2022-09-17T10:33:10;15.80;99.90
6792;DHT22;3433;48.730;9.108;2022-09-17T10:35:54;16.10;99.90
6792;DHT22;3433;48.730;9.108;2022-09-17T10:38:28;16.30;99.90
6792;DHT22;3433;48.730;9.108;2022-09-17T10:41:15;16.60;99.90
6792;DHT22;3433;48.730;9.108;2022-09-17T10:43:43;16.30;99.80
6792;DHT22;3433;48.730;9.108;2022-09-17T10:46:14;16.00;99.90
6792;DHT22;3433;48.730;9.108;2022-09-17T10:48:44;16.50;99.90
6792;DHT22;3433;48.730;9.108;2022-09-17T10:51:21;16.70;99.20
6792;DHT22;3433;48.730;9.108;2022-09-17T10:54:17;16.70;99.40
6792;DHT22;3433;48.730;9.108;2022-09-17T10:56:48;16.70;99.90
6792;DHT22;3433;48.730;9.108;2022-09-17T10:59:34;16.80;99.90
6792;DHT22;3433;48.730;9.108;2022-09-17T11:02:15;16.70;99.60
6792;DHT22;3433;48.730;9.108;2022-09-17T11:04:53;16.70;98.80
6792;DHT22;3433;48.730;9.108;2022-09-17T11:07:36;16.90;97.70
6792;DHT22;3433;48.730;9.108;2022-09-17T11:10:12;16.90;99.90
6792;DHT22;3433;48.730;9.108;2022-09-17T11:12:52;17.00;99.90
6792;DHT22;3433;48.730;9.108;2022-09-17T11:15:31;17.10;99.20
6792;DHT22;3433;48.730;9.108;2022-09-17T11:18:34;17.30;98.20
6792;DHT22;3433;48.730;9.108;2022-09-17T11:27:19;17.30;98.30
6792;DHT22;3433;48.730;9.108;2022-09-17T11:30:00;17.50;96.50
6792;DHT22;3433;48.730;9.108;2022-09-17T11:32:45;17.30;95.40
6792;DHT22;3433;48.730;9.108;2022-09-17T11:35:20;17.40;96.20
6792;DHT22;3433;48.730;9.108;2022-09-17T11:37:52;17.50;95.10
6792;DHT22;3433;48.730;9.108;2022-09-17T11:40:24;17.40;95.70
6792;DHT22;3433;48.730;9.108;2022-09-17T11:43:00;17.30;95.60
6792;DHT22;3433;48.730;9.108;2022-09-17T11:45:32;17.40;97.30
6792;DHT22;3433;48.730;9.108;2022-09-17T11:48:04;17.70;97.10
6792;DHT22;3433;48.730;9.108;2022-09-17T11:50:38;17.50;95.40
6792;DHT22;3433;48.730;9.108;2022-09-17T11:53:14;17.30;95.60
6792;DHT22;3433;48.730;9.108;2022-09-17T11:55:47;17.50;95.70
6792;DHT22;3433;48.730;9.108;2022-09-17T11:58:23;17.90;94.80
6792;DHT22;3433;48.730;9.108;2022-09-17T12:01:00;17.90;95.20
6792;DHT22;3433;48.730;9.108;2022-09-17T12:03:30;18.10;93.40
6792;DHT22;3433;48.730;9.108;2022-09-17T12:06:01;18.20;95.30
6792;DHT22;3433;48.730;9.108;2022-09-17T12:08:40;18.50;96.20
6792;DHT22;3433;48.730;9.108;2022-09-17T12:11:13;18.40;95.40
6792;DHT22;3433;48.730;9.108;2022-09-17T12:13:45;18.00;93.70
6792;DHT22;3433;48.730;9.108;2022-09-17T12:16:19;17.70;93.80
6792;DHT22;3433;48.730;9.108;2022-09-17T12:18:56;17.20;94.60
6792;DHT22;3433;48.730;9.108;2022-09-17T12:21:28;17.20;95.80
6792;DHT22;3433;48.730;9.108;2022-09-17T12:24:00;17.30;96.10
6792;DHT22;3433;48.730;9.108;2022-09-17T12:26:40;17.40;96.30
6792;DHT22;3433;48.730;9.108;2022-09-17T12:29:25;17.10;95.30
6792;DHT22;3433;48.730;9.108;2022-09-17T12:32:00;17.10;96.40
6792;DHT22;3433;48.730;9.108;2022-09-17T12:34:42;17.30;98.00
6792;DHT22;3433;48.730;9.108;2022-09-17T12:37:18;17.90;99.60
6792;DHT22;3433;48.730;9.108;2022-09-17T12:40:04;18.40;98.30
6792;DHT22;3433;48.730;9.108;2022-09-17T12:42:45;18.90;97.80
6792;DHT22;3433;48.730;9.108;2022-09-17T12:45:48;18.90;96.30
6792;DHT22;3433;48.730;9.108;2022-09-17T12:48:36;18.40;95.80
6792;DHT22;3433;48.730;9.108;2022-09-17T12:51:18;18.00;96.70
6792;DHT22;3433;48.730;9.108;2022-09-17T12:53:59;18.10;98.30
6792;DHT22;3433;48.730;9.108;2022-09-17T12:56:40;18.20;98.90
6792;DHT22;3433;48.730;9.108;2022-09-17T12:59:12;18.20;99.40
6792;DHT22;3433;48.730;9.108;2022-09-17T13:01:49;18.20;99.30
6792;DHT22;3433;48.730;9.108;2022-09-17T13:04:31;18.10;99.70
6792;DHT22;3433;48.730;9.108;2022-09-17T13:07:37;18.10;99.90
6792;DHT22;3433;48.730;9.108;2022-09-17T13:10:37;18.00;99.90
6792;DHT22;3433;48.730;9.108;2022-09-17T13:13:25;17.90;99.90
6792;DHT22;3433;48.730;9.108;2022-09-17T13:15:59;17.40;99.80
6792;DHT22;3433;48.730;9.108;2022-09-17T13:18:33;17.20;99.60
6792;DHT22;3433;48.730;9.108;2022-09-17T13:21:07;17.20;99.90
6792;DHT22;3433;48.730;9.108;2022-09-17T13:23:40;17.10;99.90
6792;DHT22;3433;48.730;9.108;2022-09-17T13:26:09;16.90;99.90
6792;DHT22;3433;48.730;9.108;2022-09-17T13:28:39;16.60;99.90
6792;DHT22;3433;48.730;9.108;2022-09-17T13:31:07;16.70;99.90
6792;DHT22;3433;48.730;9.108;2022-09-17T13:33:56;17.10;99.90
6792;DHT22;3433;48.730;9.108;2022-09-17T13:36:45;17.20;99.90
6792;DHT22;3433;48.730;9.108;2022-09-17T13:39:41;17.40;99.90
6792;DHT22;3433;48.730;9.108;2022-09-17T13:42:17;17.60;99.90
6792;DHT22;3433;48.730;9.108;2022-09-17T13:44:48;17.80;99.90
6792;DHT22;3433;48.730;9.108;2022-09-17T13:47:20;17.80;99.90
6792;DHT22;3433;48.730;9.108;2022-09-17T13:49:53;18.00;99.90
6792;DHT22;3433;48.730;9.108;2022-09-17T13:52:35;17.70;99.90
6792;DHT22;3433;48.730;9.108;2022-09-17T13:55:04;17.60;99.90
6792;DHT22;3433;48.730;9.108;2022-09-17T13:57:33;17.40;99.90
6792;DHT22;3433;48.730;9.108;2022-09-17T14:00:50;17.30;99.90
6792;DHT22;3433;48.730;9.108;2022-09-17T14:03:46;17.40;99.90
6792;DHT22;3433;48.730;9.108;2022-09-17T14:06:48;17.30;99.90
6792;DHT22;3433;48.730;9.108;2022-09-17T14:09:33;17.30;99.90
6792;DHT22;3433;48.730;9.108;2022-09-17T14:12:00;17.10;99.90
6792;DHT22;3433;48.730;9.108;2022-09-17T14:14:40;17.30;99.90
6792;DHT22;3433;48.730;9.108;2022-09-17T14:17:47;17.20;99.90
6792;DHT22;3433;48.730;9.108;2022-09-17T14:20:16;16.90;99.80
6792;DHT22;3433;48.730;9.108;2022-09-17T14:22:53;16.70;99.90
6792;DHT22;3433;48.730;9.108;2022-09-17T14:25:28;16.50;99.90
6792;DHT22;3433;48.730;9.108;2022-09-17T14:28:03;16.00;99.90
6792;DHT22;3433;48.730;9.108;2022-09-17T14:30:33;16.10;99.90
6792;DHT22;3433;48.730;9.108;2022-09-17T14:33:07;15.90;99.90
6792;DHT22;3433;48.730;9.108;2022-09-17T14:35:36;15.80;99.90
6792;DHT22;3433;48.730;9.108;2022-09-17T14:38:11;15.70;99.90
6792;DHT22;3433;48.730;9.108;2022-09-17T14:40:43;15.70;99.90
6792;DHT22;3433;48.730;9.108;2022-09-17T14:43:17;15.90;99.90
6792;DHT22;3433;48.730;9.108;2022-09-17T14:45:47;15.90;99.90
6792;DHT22;3433;48.730;9.108;2022-09-17T14:48:30;15.70;99.90
6792;DHT22;3433;48.730;9.108;2022-09-17T14:51:26;15.40;99.90
6792;DHT22;3433;48.730;9.108;2022-09-17T14:54:20;15.40;99.90
6792;DHT22;3433;48.730;9.108;2022-09-17T14:56:51;15.80;99.90
6792;DHT22;3433;48.730;9.108;2022-09-17T15:02:36;15.80;99.90
6792;DHT22;3433;48.730;9.108;2022-09-17T15:05:28;16.20;99.90
6792;DHT22;3433;48.730;9.108;2022-09-17T15:08:18;16.10;99.90
6792;DHT22;3433;48.730;9.108;2022-09-17T15:11:10;16.00;99.90
6792;DHT22;3433;48.730;9.108;2022-09-17T15:13:58;15.80;99.90
6792;DHT22;3433;48.730;9.108;2022-09-17T15:16:51;15.70;99.90
6792;DHT22;3433;48.730;9.108;2022-09-17T15:19:41;15.50;99.90
6792;DHT22;3433;48.730;9.108;2022-09-17T15:22:34;15.40;99.90
6792;DHT22;3433;48.730;9.108;2022-09-17T15:25:24;15.40;99.90
6792;DHT22;3433;48.730;9.108;2022-09-17T15:28:19;15.30;99.90
6792;DHT22;3433;48.730;9.108;2022-09-17T15:31:14;15.40;99.90
6792;DHT22;3433;48.730;9.108;2022-09-17T15:34:02;15.40;99.90
6792;DHT22;3433;48.730;9.108;2022-09-17T15:37:06;15.40;99.90
6792;DHT22;3433;48.730;9.108;2022-09-17T15:40:11;15.30;99.90
6792;DHT22;3433;48.730;9.108;2022-09-17T15:43:04;15.10;99.90
6792;DHT22;3433;48.730;9.108;2022-09-17T15:45:54;15.10;99.90
6792;DHT22;3433;48.730;9.108;2022-09-17T15:48:43;15.00;99.90
6792;DHT22;3433;48.730;9.108;2022-09-17T15:51:32;14.90;99.90
6792;DHT22;3433;48.730;9.108;2022-09-17T15:54:28;14.70;99.90
6792;DHT22;3433;48.730;9.108;2022-09-17T15:57:17;14.60;99.90
6792;DHT22;3433;48.730;9.108;2022-09-17T16:00:06;14.60;99.90
6792;DHT22;3433;48.730;9.108;2022-09-17T16:06:35;14.50;99.90
6792;DHT22;3433;48.730;9.108;2022-09-17T16:12:33;14.40;99.90
6792;DHT22;3433;48.730;9.108;2022-09-17T16:15:20;14.50;99.90
6792;DHT22;3433;48.730;9.108;2022-09-17T16:18:12;14.40;99.90
6792;DHT22;3433;48.730;9.108;2022-09-17T16:21:00;14.30;99.90
6792;DHT22;3433;48.730;9.108;2022-09-17T16:23:47;14.30;99.90
6792;DHT22;3433;48.730;9.108;2022-09-17T16:26:35;14.30;99.90
6792;DHT22;3433;48.730;9.108;2022-09-17T16:29:28;14.20;99.90
6792;DHT22;3433;48.730;9.108;2022-09-17T16:32:15;14.30;99.90
6792;DHT22;3433;48.730;9.108;2022-09-17T16:35:04;14.30;99.90
6792;DHT22;3433;48.730;9.108;2022-09-17T16:37:53;14.10;99.90
6792;DHT22;3433;48.730;9.108;2022-09-17T16:40:42;14.20;99.90
6792;DHT22;3433;48.730;9.108;2022-09-17T16:43:30;14.20;99.90
6792;DHT22;3433;48.730;9.108;2022-09-17T16:46:18;14.20;99.90
6792;DHT22;3433;48.730;9.108;2022-09-17T16:49:05;14.20;99.90
6792;DHT22;3433;48.730;9.108;2022-09-17T16:51:54;14.20;99.90
6792;DHT22;3433;48.730;9.108;2022-09-17T16:54:41;14.00;99.90
6792;DHT22;3433;48.730;9.108;2022-09-17T16:57:30;13.90;99.90
6792;DHT22;3433;48.730;9.108;2022-09-17T17:00:18;13.80;99.90
6792;DHT22;3433;48.730;9.108;2022-09-17T17:03:06;13.80;99.90
6792;DHT22;3433;48.730;9.108;2022-09-17T17:05:53;13.90;99.90
6792;DHT22;3433;48.730;9.108;2022-09-17T17:08:42;13.70;99.90
6792;DHT22;3433;48.730;9.108;2022-09-17T17:11:29;13.70;99.90
6792;DHT22;3433;48.730;9.108;2022-09-17T17:14:16;13.60;99.90